Time;durP1;ratioP1;P1;durP2;ratioP2;P2;SDS_P1;SDS_P2;PMS_P1;PMS_P2;Temp;Humidity;BMP_temperature;BMP_pressure;BME280_temperature;BME280_humidity;BME280_pressure;Samples;Min_cycle;Max_cycle;Signal;HPM_P1;HPM_P2
2021/08/14 00:00:57;;;;;;;3.10;1.42;;;25.20;45.40;;;;;;5055616;28;20037;-51
2021/08/14 00:03:23;;;;;;;3.33;1.50;;;25.20;45.40;;;;;;5055696;28;20036;-55
2021/08/14 00:05:52;;;;;;;3.17;1.50;;;25.20;45.50;;;;;;5054977;28;20029;-54
2021/08/14 00:08:17;;;;;;;3.70;1.70;;;25.20;45.50;;;;;;5055747;28;20102;-58
2021/08/14 00:10:43;;;;;;;3.83;1.83;;;25.20;45.50;;;;;;5054993;28;20078;-55
2021/08/14 00:13:09;;;;;;;2.85;1.70;;;25.20;45.50;;;;;;5055430;28;20040;-56
2021/08/14 00:15:34;;;;;;;3.13;1.75;;;25.20;45.50;;;;;;5054829;28;20040;-57
2021/08/14 00:18:01;;;;;;;3.47;1.60;;;25.20;45.60;;;;;;5055475;28;20033;-57
2021/08/14 00:20:27;;;;;;;2.85;1.60;;;25.20;45.60;;;;;;5055074;28;20336;-57
2021/08/14 00:22:52;;;;;;;3.05;1.38;;;25.10;45.60;;;;;;5055247;28;20118;-56
2021/08/14 00:25:18;;;;;;;3.30;1.77;;;25.20;45.70;;;;;;5055029;28;20460;-55
2021/08/14 00:27:44;;;;;;;4.55;2.03;;;25.20;45.70;;;;;;5054696;28;20021;-58
2021/08/14 00:30:10;;;;;;;4.03;1.88;;;25.20;45.80;;;;;;5054564;28;20041;-54
2021/08/14 00:32:36;;;;;;;4.20;1.80;;;25.20;45.80;;;;;;5055130;28;20340;-56
2021/08/14 00:35:02;;;;;;;2.92;1.70;;;25.20;45.80;;;;;;5055086;28;20124;-55
2021/08/14 00:37:28;;;;;;;3.45;1.70;;;25.20;45.80;;;;;;5054781;28;20502;-57
2021/08/14 00:39:54;;;;;;;2.40;1.40;;;25.10;45.70;;;;;;5054243;28;20021;-56
2021/08/14 00:42:19;;;;;;;2.65;1.60;;;25.10;45.80;;;;;;5054278;28;20033;-54
2021/08/14 00:44:45;;;;;;;2.90;1.52;;;25.10;45.80;;;;;;5054756;28;20028;-49
2021/08/14 00:47:11;;;;;;;3.80;1.80;;;25.10;45.80;;;;;;5054408;28;20028;-55
2021/08/14 00:49:37;;;;;;;3.95;1.90;;;25.10;45.80;;;;;;5054483;28;20025;-53
2021/08/14 00:52:03;;;;;;;1.77;1.30;;;25.10;45.90;;;;;;5054658;28;20028;-51
2021/08/14 00:54:28;;;;;;;2.35;1.60;;;25.10;45.90;;;;;;5054127;28;20048;-54
2021/08/14 00:56:56;;;;;;;3.60;1.63;;;25.10;45.90;;;;;;5054768;28;20021;-56
2021/08/14 00:59:21;;;;;;;3.00;1.67;;;25.10;45.90;;;;;;5054103;28;20464;-57
2021/08/14 01:01:47;;;;;;;2.92;1.58;;;25.10;45.90;;;;;;5054223;28;20154;-55
2021/08/14 01:04:13;;;;;;;2.55;1.60;;;25.10;45.90;;;;;;5054148;28;20029;-52
2021/08/14 01:06:39;;;;;;;3.70;1.80;;;25.10;46.00;;;;;;5054286;28;20037;-55
2021/08/14 01:09:05;;;;;;;2.40;1.63;;;25.10;46.00;;;;;;5054188;28;20037;-56
2021/08/14 01:11:31;;;;;;;2.58;1.63;;;25.10;46.00;;;;;;5054377;28;20360;-57
2021/08/14 01:13:57;;;;;;;2.50;1.50;;;25.10;46.10;;;;;;5053853;28;20083;-55
2021/08/14 01:16:25;;;;;;;4.50;2.03;;;25.10;46.10;;;;;;5019063;28;20061;-58
2021/08/14 01:18:51;;;;;;;3.08;1.60;;;25.00;46.00;;;;;;5054469;28;20025;-54
2021/08/14 01:21:21;;;;;;;3.30;1.83;;;25.00;46.10;;;;;;5054116;28;20095;-56
2021/08/14 01:23:53;;;;;;;3.35;1.90;;;25.00;46.10;;;;;;5045278;28;20033;-55
2021/08/14 01:26:19;;;;;;;2.28;1.40;;;25.00;46.10;;;;;;5053792;28;20029;-54
2021/08/14 01:28:45;;;;;;;2.65;1.40;;;25.00;46.10;;;;;;5054058;28;20047;-56
2021/08/14 01:31:12;;;;;;;3.80;1.83;;;25.00;46.20;;;;;;5054168;28;20076;-54
2021/08/14 01:33:39;;;;;;;3.65;1.75;;;25.00;46.20;;;;;;5053017;28;20342;-54
2021/08/14 01:36:07;;;;;;;2.50;1.80;;;25.00;46.30;;;;;;5054103;28;20033;-53
2021/08/14 01:38:33;;;;;;;3.08;1.42;;;25.00;46.30;;;;;;5053392;28;20140;-55
2021/08/14 01:40:59;;;;;;;4.50;1.80;;;25.00;46.30;;;;;;5054632;28;20375;-57
2021/08/14 01:43:25;;;;;;;4.55;2.08;;;25.00;46.40;;;;;;5053098;28;20407;-56
2021/08/14 01:45:51;;;;;;;3.08;1.73;;;24.90;46.40;;;;;;5053894;28;20068;-58
2021/08/14 01:48:17;;;;;;;3.50;1.67;;;24.90;46.40;;;;;;5052717;28;20017;-54
2021/08/14 01:50:43;;;;;;;4.07;1.75;;;25.00;46.50;;;;;;5053649;28;20120;-58
2021/08/14 01:53:10;;;;;;;2.90;1.58;;;25.00;46.50;;;;;;5053697;28;20024;-53
2021/08/14 01:55:36;;;;;;;2.78;1.55;;;24.90;46.50;;;;;;5054033;28;20083;-55
2021/08/14 01:58:06;;;;;;;2.30;1.52;;;24.90;46.50;;;;;;5053132;28;20484;-57
2021/08/14 02:00:31;;;;;;;3.50;1.40;;;24.90;46.50;;;;;;5053717;28;20048;-52
2021/08/14 02:02:58;;;;;;;3.53;1.73;;;24.90;46.60;;;;;;5053595;28;20429;-55
2021/08/14 02:05:24;;;;;;;3.17;1.60;;;24.90;46.60;;;;;;5053824;28;20123;-54
2021/08/14 02:07:49;;;;;;;3.78;1.60;;;24.90;46.60;;;;;;5053718;28;20464;-56
2021/08/14 02:10:15;;;;;;;2.85;1.63;;;24.90;46.70;;;;;;5054406;28;20128;-59
2021/08/14 02:12:41;;;;;;;3.65;1.90;;;24.90;46.70;;;;;;5057418;28;20029;-54
2021/08/14 02:15:08;;;;;;;1.58;1.08;;;24.90;46.80;;;;;;5057256;28;20368;-57
2021/08/14 02:17:34;;;;;;;3.38;1.70;;;24.80;46.80;;;;;;5056418;28;20041;-53
2021/08/14 02:20:00;;;;;;;3.40;1.63;;;24.90;46.90;;;;;;5053394;28;20040;-53
2021/08/14 02:22:26;;;;;;;4.10;1.55;;;24.90;47.00;;;;;;5055707;28;20455;-52
2021/08/14 02:24:52;;;;;;;3.85;1.88;;;24.80;47.00;;;;;;5055996;28;20732;-57
2021/08/14 02:27:17;;;;;;;3.42;1.88;;;24.80;47.10;;;;;;5055830;28;20028;-54
2021/08/14 02:29:43;;;;;;;3.38;1.98;;;24.80;47.10;;;;;;5054780;28;20116;-57
2021/08/14 02:32:09;;;;;;;4.45;2.25;;;24.80;47.30;;;;;;5052224;28;20452;-52
2021/08/14 02:34:35;;;;;;;3.28;1.42;;;24.80;47.20;;;;;;5052750;28;20025;-58
2021/08/14 02:37:03;;;;;;;3.65;1.55;;;24.80;47.30;;;;;;5053835;28;20116;-56
2021/08/14 02:39:28;;;;;;;3.05;1.52;;;24.80;47.30;;;;;;5053866;28;20025;-59
2021/08/14 02:41:54;;;;;;;2.60;1.65;;;24.80;47.40;;;;;;5054320;28;20032;-59
2021/08/14 02:44:20;;;;;;;3.30;1.90;;;24.80;47.40;;;;;;5054536;28;20028;-57
2021/08/14 02:46:45;;;;;;;3.90;1.92;;;24.80;47.40;;;;;;5054126;28;20029;-54
2021/08/14 02:49:11;;;;;;;3.25;1.80;;;24.80;47.50;;;;;;5053545;28;20041;-57
2021/08/14 02:51:37;;;;;;;3.17;1.70;;;24.70;47.50;;;;;;5053456;28;20094;-54
2021/08/14 02:54:03;;;;;;;3.35;1.80;;;24.70;47.50;;;;;;5053498;28;20033;-51
2021/08/14 02:56:28;;;;;;;4.80;1.95;;;24.70;47.60;;;;;;5054181;28;20110;-56
2021/08/14 02:58:54;;;;;;;2.80;1.60;;;24.70;47.60;;;;;;5054359;28;20040;-57
2021/08/14 03:01:20;;;;;;;3.20;2.00;;;24.70;47.60;;;;;;5053475;28;20032;-54
2021/08/14 03:03:46;;;;;;;2.83;1.80;;;24.70;47.70;;;;;;5035205;28;20411;-58
2021/08/14 03:06:28;;;;;;;4.22;2.00;;;24.70;47.70;;;;;;5053029;28;20025;-56
2021/08/14 03:08:54;;;;;;;4.38;1.90;;;24.70;47.70;;;;;;5051772;28;20033;-57
2021/08/14 03:11:20;;;;;;;3.45;1.73;;;24.70;47.70;;;;;;5053902;28;20090;-53
2021/08/14 03:13:46;;;;;;;2.28;1.45;;;24.70;47.80;;;;;;5052969;28;20387;-57
2021/08/14 03:16:12;;;;;;;3.15;1.83;;;24.70;47.80;;;;;;5053585;28;20045;-59
2021/08/14 03:18:38;;;;;;;3.83;1.90;;;24.70;47.80;;;;;;5053217;28;20111;-51
2021/08/14 03:21:03;;;;;;;2.42;1.58;;;24.70;47.80;;;;;;5053395;28;20090;-54
2021/08/14 03:23:29;;;;;;;3.03;1.45;;;24.70;47.90;;;;;;5053957;28;20466;-58
2021/08/14 03:25:55;;;;;;;3.00;1.60;;;24.70;47.90;;;;;;5053088;28;20340;-54
2021/08/14 03:28:21;;;;;;;3.28;1.88;;;24.70;47.90;;;;;;5053515;28;20036;-53
2021/08/14 03:30:47;;;;;;;3.75;2.08;;;24.60;47.90;;;;;;5054280;28;20045;-56
2021/08/14 03:33:13;;;;;;;3.80;2.15;;;24.70;47.90;;;;;;5053358;28;20472;-58
2021/08/14 03:35:38;;;;;;;4.28;2.13;;;24.70;47.90;;;;;;5035531;28;20156;-58
2021/08/14 03:38:04;;;;;;;3.75;1.70;;;24.70;47.90;;;;;;5051656;28;20048;-56
2021/08/14 03:40:30;;;;;;;2.35;1.58;;;24.60;47.90;;;;;;5053172;28;20025;-57
2021/08/14 03:42:55;;;;;;;4.63;2.33;;;24.60;47.90;;;;;;5052585;28;20029;-54
2021/08/14 03:45:21;;;;;;;3.30;1.80;;;24.60;47.90;;;;;;5053844;28;20029;-55
2021/08/14 03:47:47;;;;;;;4.30;2.30;;;24.60;47.90;;;;;;5053377;28;20024;-57
2021/08/14 03:50:14;;;;;;;3.47;1.77;;;24.60;47.90;;;;;;5052264;28;20490;-55
2021/08/14 03:52:40;;;;;;;2.92;1.60;;;24.60;47.90;;;;;;5052973;28;20024;-57
2021/08/14 03:55:06;;;;;;;4.82;2.20;;;24.60;48.60;;;;;;5051902;28;20357;-56
2021/08/14 03:57:32;;;;;;;2.72;1.90;;;24.60;48.00;;;;;;5052679;28;20079;-54
2021/08/14 03:59:58;;;;;;;4.00;1.90;;;24.60;48.00;;;;;;5052701;28;20020;-54
2021/08/14 04:02:25;;;;;;;3.30;1.80;;;24.60;48.00;;;;;;5052690;28;20029;-57
2021/08/14 04:04:51;;;;;;;2.42;1.35;;;24.60;48.00;;;;;;5052707;28;20111;-57
2021/08/14 04:07:17;;;;;;;4.03;1.80;;;24.60;48.10;;;;;;5052215;28;20450;-55
2021/08/14 04:09:43;;;;;;;3.20;1.88;;;24.60;48.10;;;;;;5052542;28;20032;-55
2021/08/14 04:12:09;;;;;;;3.28;1.98;;;24.50;48.10;;;;;;5052548;28;20036;-53
2021/08/14 04:14:35;;;;;;;4.32;1.90;;;24.60;48.10;;;;;;5052040;28;20067;-57
2021/08/14 04:17:01;;;;;;;3.55;1.75;;;24.60;48.10;;;;;;5052480;28;20040;-59
2021/08/14 04:19:27;;;;;;;2.47;1.35;;;24.60;48.10;;;;;;5052379;28;20029;-53
2021/08/14 04:21:53;;;;;;;4.80;1.88;;;24.60;48.20;;;;;;5052616;28;20028;-52
2021/08/14 04:24:18;;;;;;;3.78;1.75;;;24.60;48.20;;;;;;5052385;28;20125;-53
2021/08/14 04:26:44;;;;;;;2.90;1.92;;;24.50;48.10;;;;;;5052150;28;20029;-55
2021/08/14 04:29:11;;;;;;;4.43;2.03;;;24.50;48.10;;;;;;5051832;28;20033;-55
2021/08/14 04:31:37;;;;;;;3.38;1.60;;;24.50;48.10;;;;;;5050294;28;20467;-55
2021/08/14 04:34:03;;;;;;;2.08;1.50;;;24.50;48.10;;;;;;5051736;28;20448;-56
2021/08/14 04:36:29;;;;;;;4.18;2.20;;;24.50;48.10;;;;;;5052221;28;20082;-52
2021/08/14 04:38:55;;;;;;;2.63;1.55;;;24.50;48.10;;;;;;5051626;28;20025;-57
2021/08/14 04:41:21;;;;;;;3.00;1.45;;;24.50;48.10;;;;;;5052202;28;20505;-57
2021/08/14 04:43:47;;;;;;;2.72;1.50;;;24.50;48.10;;;;;;5052117;28;20029;-55
2021/08/14 04:46:13;;;;;;;3.60;1.92;;;24.50;48.10;;;;;;5051536;28;20029;-55
2021/08/14 04:48:38;;;;;;;2.55;1.55;;;24.50;48.80;;;;;;5034790;28;20476;-54
2021/08/14 04:51:04;;;;;;;3.00;1.70;;;24.50;48.10;;;;;;5050795;28;20459;-58
2021/08/14 04:53:30;;;;;;;2.63;1.52;;;24.50;48.10;;;;;;5051038;28;20021;-55
2021/08/14 04:55:56;;;;;;;3.20;1.65;;;24.50;48.10;;;;;;5052184;28;20388;-55
2021/08/14 04:58:21;;;;;;;4.57;2.10;;;24.50;48.10;;;;;;5051542;28;20021;-53
2021/08/14 05:00:47;;;;;;;2.80;1.90;;;24.50;48.10;;;;;;5051940;28;20051;-53
2021/08/14 05:03:15;;;;;;;2.78;1.55;;;24.50;48.10;;;;;;5049333;28;20031;-53
2021/08/14 05:05:42;;;;;;;2.78;1.50;;;24.40;48.10;;;;;;5051074;28;20440;-53
2021/08/14 05:08:07;;;;;;;2.47;1.58;;;24.40;48.10;;;;;;5051194;28;20411;-59
2021/08/14 05:10:33;;;;;;;2.42;1.50;;;24.40;48.10;;;;;;5050926;28;20041;-53
2021/08/14 05:12:59;;;;;;;4.03;2.17;;;24.40;48.10;;;;;;5051258;28;20033;-57
2021/08/14 05:15:25;;;;;;;3.03;1.80;;;24.40;48.10;;;;;;5051800;28;20460;-58
2021/08/14 05:17:51;;;;;;;4.18;1.63;;;24.40;48.10;;;;;;5051012;28;20033;-57
2021/08/14 05:20:16;;;;;;;3.17;1.70;;;24.40;48.10;;;;;;5051024;28;20020;-57
2021/08/14 05:22:42;;;;;;;3.67;1.77;;;24.40;48.10;;;;;;5050835;28;20025;-56
2021/08/14 05:25:08;;;;;;;5.05;2.22;;;24.40;48.10;;;;;;5052016;28;20021;-55
2021/08/14 05:27:34;;;;;;;3.03;1.90;;;24.40;48.10;;;;;;5050849;28;20021;-58
2021/08/14 05:30:00;;;;;;;2.97;1.70;;;24.50;48.10;;;;;;5051829;28;20377;-60
2021/08/14 05:32:26;;;;;;;3.38;1.60;;;24.40;48.10;;;;;;5051013;28;20032;-58
2021/08/14 05:34:51;;;;;;;3.97;1.83;;;24.40;48.10;;;;;;5051217;28;20036;-59
2021/08/14 05:37:17;;;;;;;2.42;1.52;;;24.40;48.10;;;;;;5050919;28;20043;-56
2021/08/14 05:39:43;;;;;;;4.57;1.88;;;24.50;48.10;;;;;;5051174;28;20017;-56
2021/08/14 05:42:09;;;;;;;3.95;1.67;;;24.40;48.10;;;;;;5050456;28;20028;-54
2021/08/14 05:44:35;;;;;;;3.72;1.77;;;24.50;48.20;;;;;;5051284;28;20112;-57
2021/08/14 05:47:00;;;;;;;2.63;1.67;;;24.50;48.10;;;;;;5050486;28;20040;-55
2021/08/14 05:49:26;;;;;;;2.38;1.52;;;24.40;48.10;;;;;;5050918;28;20318;-58
2021/08/14 05:51:52;;;;;;;2.85;1.80;;;24.50;48.20;;;;;;5050028;28;20693;-59
2021/08/14 05:54:18;;;;;;;3.67;1.50;;;24.50;48.20;;;;;;5049930;28;20029;-55
2021/08/14 05:56:46;;;;;;;2.92;1.90;;;24.50;48.20;;;;;;5050832;28;20021;-58
2021/08/14 05:59:11;;;;;;;2.88;1.70;;;24.50;48.20;;;;;;5051728;28;20094;-57
2021/08/14 06:01:38;;;;;;;2.72;1.60;;;24.50;48.10;;;;;;5050547;28;20133;-54
2021/08/14 06:04:04;;;;;;;3.22;1.88;;;24.50;48.10;;;;;;5050234;28;20043;-54
2021/08/14 06:06:29;;;;;;;3.55;1.70;;;24.50;48.10;;;;;;5051054;28;20020;-57
2021/08/14 06:08:55;;;;;;;2.63;1.50;;;24.50;48.10;;;;;;5050658;28;20025;-55
2021/08/14 06:11:21;;;;;;;5.25;2.10;;;24.50;48.10;;;;;;5050560;28;20040;-54
2021/08/14 06:13:47;;;;;;;3.00;1.77;;;24.50;48.70;;;;;;5050955;28;20021;-53
2021/08/14 06:16:14;;;;;;;3.30;2.00;;;24.50;48.10;;;;;;5050802;28;20041;-55
2021/08/14 06:18:41;;;;;;;2.67;1.70;;;24.50;48.80;;;;;;5050163;28;20037;-57
2021/08/14 06:21:08;;;;;;;3.17;1.67;;;24.50;48.10;;;;;;5051111;28;20135;-58
2021/08/14 06:23:34;;;;;;;4.63;1.95;;;24.50;48.10;;;;;;5050490;28;20033;-56
2021/08/14 06:26:00;;;;;;;3.30;2.03;;;24.60;48.20;;;;;;5050122;28;20025;-55
2021/08/14 06:28:25;;;;;;;3.60;2.05;;;24.60;48.20;;;;;;5051225;28;20322;-57
2021/08/14 06:30:51;;;;;;;4.18;2.08;;;24.60;48.20;;;;;;5050979;28;20032;-56
2021/08/14 06:33:17;;;;;;;4.10;1.80;;;24.50;48.10;;;;;;5050297;28;20566;-56
2021/08/14 06:35:43;;;;;;;3.33;1.80;;;24.60;48.20;;;;;;5049134;28;20349;-57
2021/08/14 06:38:08;;;;;;;3.45;1.80;;;24.60;48.40;;;;;;5050238;28;20028;-55
2021/08/14 06:40:35;;;;;;;4.00;1.73;;;24.60;48.50;;;;;;5050612;28;20025;-57
2021/08/14 06:43:01;;;;;;;4.32;2.42;;;24.60;48.60;;;;;;5050447;28;20099;-54
2021/08/14 06:45:26;;;;;;;3.42;1.88;;;24.60;48.60;;;;;;5049668;28;20447;-58
2021/08/14 06:47:52;;;;;;;3.05;1.80;;;24.70;48.60;;;;;;5051241;28;20078;-56
2021/08/14 06:50:18;;;;;;;4.28;2.00;;;24.70;48.60;;;;;;5050621;28;20036;-57
2021/08/14 06:52:44;;;;;;;3.65;1.85;;;24.70;48.60;;;;;;5046701;28;20334;-57
2021/08/14 06:55:10;;;;;;;2.42;1.63;;;24.70;48.60;;;;;;5049539;28;20040;-59
2021/08/14 06:57:36;;;;;;;4.05;2.10;;;24.80;48.60;;;;;;5049744;28;20025;-57
2021/08/14 07:00:04;;;;;;;3.70;1.92;;;24.80;48.60;;;;;;5054175;28;20039;-55
2021/08/14 07:02:30;;;;;;;6.20;2.25;;;24.80;48.50;;;;;;5051287;28;20541;-60
2021/08/14 07:04:55;;;;;;;4.13;2.15;;;24.90;48.40;;;;;;5053642;28;20039;-60
2021/08/14 07:07:21;;;;;;;5.10;2.28;;;24.90;48.30;;;;;;5053146;28;20032;-58
2021/08/14 07:09:47;;;;;;;2.90;1.77;;;24.90;48.30;;;;;;5036232;28;20445;-58
2021/08/14 07:12:14;;;;;;;4.00;1.73;;;24.90;48.30;;;;;;5054122;28;20029;-61
2021/08/14 07:14:40;;;;;;;4.57;2.03;;;25.00;48.40;;;;;;5053740;28;20037;-56
2021/08/14 07:17:06;;;;;;;2.67;1.77;;;25.00;48.40;;;;;;5053625;28;20367;-56
2021/08/14 07:19:32;;;;;;;3.20;1.88;;;25.00;48.30;;;;;;5053333;28;20042;-56
2021/08/14 07:21:58;;;;;;;4.85;2.47;;;25.00;48.30;;;;;;5054027;28;20108;-57
2021/08/14 07:24:23;;;;;;;3.15;1.83;;;25.00;48.30;;;;;;5036632;28;20064;-59
2021/08/14 07:26:49;;;;;;;4.55;2.20;;;25.00;48.30;;;;;;5054074;28;20021;-56
2021/08/14 07:29:15;;;;;;;3.35;1.95;;;25.10;48.30;;;;;;5053561;28;20036;-56
2021/08/14 07:31:41;;;;;;;3.88;1.98;;;25.10;48.30;;;;;;5054514;28;20124;-56
2021/08/14 07:34:06;;;;;;;4.28;2.08;;;25.10;48.30;;;;;;5053702;28;20039;-50
2021/08/14 07:36:32;;;;;;;3.25;2.10;;;25.10;48.30;;;;;;5052916;28;20032;-55
2021/08/14 07:38:58;;;;;;;3.85;1.70;;;25.10;48.40;;;;;;5052784;28;20045;-57
2021/08/14 07:41:24;;;;;;;6.32;2.13;;;25.10;48.40;;;;;;5051775;28;20062;-55
2021/08/14 07:43:49;;;;;;;3.90;1.90;;;25.20;48.40;;;;;;5052798;28;20450;-57
2021/08/14 07:46:15;;;;;;;3.05;1.98;;;25.10;48.30;;;;;;5053326;28;20052;-52
2021/08/14 07:48:41;;;;;;;5.18;2.65;;;25.20;48.40;;;;;;5053116;28;20039;-55
2021/08/14 07:51:07;;;;;;;4.30;2.25;;;25.20;48.40;;;;;;5053443;28;20041;-57
2021/08/14 07:53:33;;;;;;;4.13;1.95;;;25.20;48.40;;;;;;5052039;28;20035;-60
2021/08/14 07:55:59;;;;;;;3.55;2.15;;;25.20;48.40;;;;;;5049475;28;20479;-55
2021/08/14 07:58:25;;;;;;;4.57;2.20;;;25.20;48.50;;;;;;5050382;28;20033;-54
2021/08/14 08:00:51;;;;;;;5.10;2.78;;;25.30;48.60;;;;;;5052701;28;20490;-57
2021/08/14 08:03:17;;;;;;;5.40;2.60;;;25.30;48.60;;;;;;5050578;28;20032;-55
2021/08/14 08:05:43;;;;;;;6.22;2.80;;;25.30;48.60;;;;;;5049177;28;20349;-56
2021/08/14 08:08:09;;;;;;;6.85;2.42;;;25.30;48.60;;;;;;5048622;28;20454;-57
2021/08/14 08:10:35;;;;;;;3.78;2.28;;;25.30;48.60;;;;;;5049785;28;20053;-54
2021/08/14 08:13:02;;;;;;;4.60;2.17;;;25.30;48.60;;;;;;5049443;28;20047;-58
2021/08/14 08:15:28;;;;;;;3.80;2.15;;;25.30;48.60;;;;;;5051841;28;20073;-56
2021/08/14 08:17:53;;;;;;;4.93;2.40;;;25.30;48.60;;;;;;5048916;28;20189;-57
2021/08/14 08:20:20;;;;;;;4.72;2.33;;;25.30;48.60;;;;;;5050451;28;20421;-53
2021/08/14 08:22:46;;;;;;;2.95;1.98;;;25.30;48.60;;;;;;5051796;28;20043;-60
2021/08/14 08:25:14;;;;;;;4.53;2.30;;;25.40;48.60;;;;;;5052324;28;20082;-56
2021/08/14 08:27:42;;;;;;;3.63;2.17;;;25.40;48.60;;;;;;5050668;28;20445;-52
2021/08/14 08:30:09;;;;;;;3.97;2.22;;;25.40;48.70;;;;;;5051198;28;20506;-59
2021/08/14 08:32:36;;;;;;;5.47;2.20;;;25.40;48.70;;;;;;5052293;28;20035;-57
2021/08/14 08:35:03;;;;;;;5.05;2.03;;;25.40;48.60;;;;;;5052939;28;20098;-54
2021/08/14 08:37:28;;;;;;;3.50;2.00;;;25.40;48.60;;;;;;5049298;28;20500;-61
2021/08/14 08:39:54;;;;;;;2.65;1.30;;;25.40;48.60;;;;;;5051811;28;20103;-56
2021/08/14 08:42:20;;;;;;;2.85;1.60;;;25.40;48.60;;;;;;5051629;28;20021;-56
2021/08/14 08:44:46;;;;;;;2.50;1.67;;;25.40;48.50;;;;;;5052500;28;20598;-56
2021/08/14 08:47:13;;;;;;;2.55;1.60;;;25.40;48.50;;;;;;5050810;28;20495;-56
2021/08/14 08:49:53;;;;;;;4.05;1.73;;;25.40;48.50;;;;;;5051546;28;20029;-54
2021/08/14 08:52:21;;;;;;;5.72;2.08;;;25.50;48.60;;;;;;5050070;28;20032;-53
2021/08/14 08:54:48;;;;;;;5.38;2.22;;;25.50;48.70;;;;;;5051760;28;20391;-57
2021/08/14 08:57:14;;;;;;;4.97;1.95;;;25.50;48.70;;;;;;5033789;28;20047;-54
2021/08/14 08:59:40;;;;;;;2.88;1.83;;;25.50;48.70;;;;;;5051447;28;20065;-56
2021/08/14 09:02:24;;;;;;;5.65;2.30;;;25.50;48.70;;;;;;5051894;28;20056;-56
2021/08/14 09:05:07;;;;;;;4.68;2.50;;;25.50;48.70;;;;;;5050065;28;20107;-54
2021/08/14 09:07:33;;;;;;;4.13;2.00;;;25.60;48.80;;;;;;5051772;28;20039;-54
2021/08/14 09:10:01;;;;;;;5.18;2.72;;;25.50;48.70;;;;;;5051218;28;20037;-54
2021/08/14 09:12:33;;;;;;;5.43;2.40;;;25.60;48.80;;;;;;5051214;28;20456;-52
2021/08/14 09:14:59;;;;;;;4.20;2.20;;;25.60;48.80;;;;;;5051574;28;20091;-53
2021/08/14 09:17:28;;;;;;;3.80;1.92;;;25.60;48.80;;;;;;5051428;28;20441;-57
2021/08/14 09:20:10;;;;;;;4.93;2.38;;;25.60;48.80;;;;;;5049829;28;20025;-54
2021/08/14 09:22:38;;;;;;;4.63;2.35;;;25.60;48.80;;;;;;5049599;28;20029;-55
2021/08/14 09:25:18;;;;;;;4.20;1.92;;;25.60;48.90;;;;;;5051176;28;20053;-56
2021/08/14 09:27:51;;;;;;;4.85;2.30;;;25.60;48.80;;;;;;5050892;28;20055;-59
2021/08/14 09:30:17;;;;;;;3.55;2.10;;;25.60;48.80;;;;;;5050847;28;20037;-52
2021/08/14 09:33:07;;;;;;;5.55;2.42;;;25.60;48.90;;;;;;5052075;28;20029;-51
2021/08/14 09:35:34;;;;;;;4.68;2.45;;;25.60;48.80;;;;;;5050683;28;20063;-60
2021/08/14 09:38:07;;;;;;;5.43;2.92;;;25.60;49.00;;;;;;5051207;28;20024;-59
2021/08/14 09:40:42;;;;;;;4.47;2.50;;;25.60;49.00;;;;;;5049979;28;20320;-55
2021/08/14 09:43:11;;;;;;;5.72;2.85;;;25.60;49.10;;;;;;5049200;28;20036;-56
2021/08/14 09:45:37;;;;;;;5.80;2.67;;;25.60;49.10;;;;;;5051648;28;20028;-54
2021/08/14 09:48:21;;;;;;;4.07;2.78;;;25.60;49.20;;;;;;5048308;28;20036;-56
2021/08/14 09:50:48;;;;;;;5.03;2.80;;;25.70;49.70;;;;;;5050647;28;20041;-54
2021/08/14 09:53:29;;;;;;;5.78;3.25;;;25.70;49.10;;;;;;5050029;28;20392;-54
2021/08/14 09:56:11;;;;;;;5.80;3.13;;;25.70;49.10;;;;;;5050904;28;20380;-58
2021/08/14 09:58:39;;;;;;;5.75;2.78;;;25.70;49.10;;;;;;5049858;28;20037;-60
2021/08/14 10:01:07;;;;;;;5.78;3.15;;;25.70;49.20;;;;;;5051605;28;20041;-57
2021/08/14 10:03:35;;;;;;;5.05;3.13;;;25.70;49.10;;;;;;5050171;28;20395;-58
2021/08/14 10:06:02;;;;;;;4.97;3.03;;;25.70;49.00;;;;;;5051839;28;20044;-56
2021/08/14 10:08:29;;;;;;;5.80;3.20;;;25.70;48.90;;;;;;5050730;28;20021;-54
2021/08/14 10:10:56;;;;;;;6.05;3.03;;;25.70;48.90;;;;;;5050016;28;20467;-56
2021/08/14 10:13:22;;;;;;;7.07;2.97;;;25.70;48.90;;;;;;5051068;28;20017;-53
2021/08/14 10:15:49;;;;;;;5.30;3.08;;;25.80;48.90;;;;;;5050213;28;20045;-55
2021/08/14 10:18:18;;;;;;;5.47;3.28;;;25.80;48.90;;;;;;5051880;28;20079;-60
2021/08/14 10:20:46;;;;;;;4.88;3.05;;;25.80;48.90;;;;;;5050433;28;20055;-60
2021/08/14 10:23:23;;;;;;;3.90;2.90;;;25.80;48.90;;;;;;5050553;28;20021;-57
2021/08/14 10:26:01;;;;;;;5.07;2.90;;;25.90;48.90;;;;;;5030928;28;20119;-56
2021/08/14 10:28:44;;;;;;;4.15;2.80;;;25.90;48.80;;;;;;5049728;28;20025;-58
2021/08/14 10:31:31;;;;;;;5.47;3.17;;;25.90;48.70;;;;;;5048862;28;20479;-56
2021/08/14 10:34:19;;;;;;;3.90;2.60;;;25.90;48.60;;;;;;5035984;28;20079;-56
2021/08/14 10:36:47;;;;;;;4.93;2.97;;;25.90;48.70;;;;;;5054387;28;20039;-60
2021/08/14 10:39:35;;;;;;;5.57;3.10;;;26.00;48.70;;;;;;5054952;28;20035;-54
2021/08/14 10:42:04;;;;;;;4.63;3.10;;;26.00;48.70;;;;;;5053321;28;20032;-58
2021/08/14 10:44:38;;;;;;;5.72;2.97;;;26.00;48.70;;;;;;5054646;28;20029;-59
2021/08/14 10:47:05;;;;;;;6.13;3.47;;;26.00;48.80;;;;;;5055139;28;20033;-55
2021/08/14 10:49:40;;;;;;;5.55;3.10;;;26.00;48.80;;;;;;5055861;28;20112;-60
2021/08/14 10:52:06;;;;;;;5.32;2.75;;;26.10;48.80;;;;;;5052373;28;20115;-58
2021/08/14 10:54:33;;;;;;;4.10;2.88;;;26.10;48.80;;;;;;5054776;28;20045;-59
2021/08/14 10:57:09;;;;;;;4.65;2.85;;;26.10;48.80;;;;;;5051741;28;20033;-54
2021/08/14 10:59:38;;;;;;;4.35;2.65;;;26.20;48.80;;;;;;5053832;28;20437;-54
2021/08/14 11:02:06;;;;;;;6.93;3.10;;;26.20;48.80;;;;;;5053185;28;20037;-55
2021/08/14 11:04:40;;;;;;;6.28;3.08;;;26.20;48.80;;;;;;5053622;28;20025;-62
2021/08/14 11:07:21;;;;;;;6.57;3.33;;;26.30;49.00;;;;;;5053555;28;20059;-58
2021/08/14 11:09:53;;;;;;;5.25;3.10;;;26.30;49.00;;;;;;5034184;28;20028;-56
2021/08/14 11:12:35;;;;;;;4.60;2.97;;;26.30;48.90;;;;;;5053576;28;20032;-61
2021/08/14 11:15:16;;;;;;;8.75;3.65;;;26.40;48.90;;;;;;5053533;28;20167;-57
2021/08/14 11:17:45;;;;;;;6.30;3.33;;;26.40;48.80;;;;;;5052526;28;20883;-60
2021/08/14 11:20:22;;;;;;;6.20;3.55;;;26.40;48.80;;;;;;5052921;28;20033;-59
2021/08/14 11:22:56;;;;;;;6.13;3.38;;;26.40;48.70;;;;;;5053547;28;20037;-56
2021/08/14 11:25:32;;;;;;;6.28;3.50;;;26.40;48.70;;;;;;5052724;28;20044;-58
2021/08/14 11:28:11;;;;;;;4.93;3.67;;;26.40;48.70;;;;;;5051780;28;20325;-56
2021/08/14 11:30:47;;;;;;;5.38;3.40;;;26.40;48.70;;;;;;5036275;28;20045;-55
2021/08/14 11:33:15;;;;;;;5.13;3.13;;;26.40;48.70;;;;;;5034742;28;20041;-56
2021/08/14 11:35:42;;;;;;;5.20;3.00;;;26.50;48.70;;;;;;5053386;28;20028;-55
2021/08/14 11:38:10;;;;;;;5.00;3.72;;;26.50;48.70;;;;;;5052747;28;20058;-57
2021/08/14 11:40:40;;;;;;;4.40;3.08;;;26.50;48.60;;;;;;5053348;28;20044;-58
2021/08/14 11:43:15;;;;;;;4.97;3.45;;;26.50;48.60;;;;;;5053093;28;20039;-54
2021/08/14 11:45:43;;;;;;;4.45;2.92;;;26.50;48.50;;;;;;5054107;28;20033;-59
2021/08/14 11:48:11;;;;;;;4.28;2.80;;;26.50;48.50;;;;;;5053198;28;20048;-55
2021/08/14 11:50:38;;;;;;;4.32;2.92;;;26.50;48.40;;;;;;5052751;28;20044;-57
2021/08/14 11:53:06;;;;;;;4.13;3.05;;;26.50;48.40;;;;;;5053621;28;20029;-57
2021/08/14 11:55:32;;;;;;;5.65;2.88;;;26.50;48.40;;;;;;5052637;28;20162;-55
2021/08/14 11:57:58;;;;;;;5.60;3.20;;;26.50;48.50;;;;;;5051684;28;20436;-58
2021/08/14 12:00:27;;;;;;;4.82;3.25;;;26.50;48.60;;;;;;5052625;28;20029;-56
2021/08/14 12:03:14;;;;;;;5.53;3.35;;;26.50;48.60;;;;;;5051938;28;20037;-58
2021/08/14 12:05:42;;;;;;;4.13;3.10;;;26.50;48.60;;;;;;5051841;28;20025;-57
2021/08/14 12:08:27;;;;;;;4.50;2.90;;;26.50;48.70;;;;;;5053108;28;20078;-58
2021/08/14 12:10:53;;;;;;;4.22;3.00;;;26.50;48.70;;;;;;5052549;28;20033;-58
2021/08/14 12:13:20;;;;;;;4.70;3.10;;;26.60;48.80;;;;;;5053598;28;20326;-59
2021/08/14 12:15:48;;;;;;;6.68;3.00;;;26.60;48.80;;;;;;5053169;28;20045;-61
2021/08/14 12:18:33;;;;;;;5.75;3.50;;;26.60;48.80;;;;;;5051418;28;20510;-56
2021/08/14 12:21:01;;;;;;;3.63;2.63;;;26.60;48.80;;;;;;5053570;28;20108;-60
2021/08/14 12:23:30;;;;;;;4.85;3.05;;;26.60;48.80;;;;;;5053936;28;20021;-60
2021/08/14 12:26:02;;;;;;;3.72;2.78;;;26.70;48.90;;;;;;5051970;28;20044;-55
2021/08/14 12:28:29;;;;;;;4.25;2.78;;;26.70;48.80;;;;;;5052581;28;20025;-53
2021/08/14 12:31:01;;;;;;;4.47;3.03;;;26.70;48.80;;;;;;5034624;28;20067;-60
2021/08/14 12:33:31;;;;;;;4.50;3.10;;;26.70;48.70;;;;;;5052286;28;20582;-61
2021/08/14 12:36:00;;;;;;;4.18;2.45;;;26.70;48.70;;;;;;5052381;28;20219;-60
2021/08/14 12:38:27;;;;;;;4.75;2.88;;;26.70;48.70;;;;;;5053461;28;20029;-58
2021/08/14 12:40:53;;;;;;;4.50;2.97;;;26.80;48.80;;;;;;5052767;28;20341;-59
2021/08/14 12:43:21;;;;;;;4.57;3.00;;;26.80;48.70;;;;;;5052904;28;20115;-60
2021/08/14 12:45:48;;;;;;;4.55;3.17;;;26.80;48.60;;;;;;5052533;28;20052;-59
2021/08/14 12:48:14;;;;;;;4.88;2.97;;;26.80;48.60;;;;;;5053945;28;20120;-60
2021/08/14 12:50:40;;;;;;;4.88;2.80;;;26.80;48.50;;;;;;5052633;28;20471;-59